Flight Track Log - Related Links

Times and Time Zones

All times are in EDT time to prevent confusion due to time zone crossing. See the N960DL flight status page for this flight to view local times or setup timezone preferences in your user account.

Time Position Orientation Groundspeed Altitude Reporting Facility
EDT Latitude Longitude Course Direction KTS MPH feet Rate Location/Type
Sat 10:39:32 PM 33.6331 -84.3781 202° Southwest 452 520 2,500  Level Atlanta Center
Sat 10:40:32 PM 33.6083 -84.3008 111° Southeast 333 383 4,800 2,600 Climbing Atlanta Center
Sat 10:41:32 PM 33.5414 -84.2806 166° South 242 278 7,700 2,800 Climbing Atlanta Center
Sat 10:42:00 PM 33.2826 -84.3469 202° Southwest  Level FlightAware Approximate
Sat 10:42:32 PM 33.4622 -84.2828 181° South 272 313 10,400  Level Atlanta Center
Sat 10:43:00 PM 33.1748 -84.3985 202° Southwest  Level FlightAware Approximate
Sat 10:43:32 PM 33.3889 -84.3100 197° South 280 322 11,300  Level Atlanta Center
Sat 10:44:00 PM 33.0670 -84.4499 202° Southwest  Level FlightAware Approximate
Sat 10:44:32 PM 33.2928 -84.3569 202° Southwest 348 400 13,500  Level Atlanta Center
Sat 10:45:32 PM 33.1906 -84.4036 201° Southwest 387 445 15,900 2,200 Climbing Atlanta Center
Sat 10:46:32 PM 33.0858 -84.4528 201° Southwest 404 465 17,900 1,950 Climbing Atlanta Center
Sat 10:47:32 PM 32.9772 -84.5044 202° Southwest 415 478 19,800 1,850 Climbing Atlanta Center
Sat 10:48:32 PM 32.8539 -84.5706 204° Southwest 432 497 21,600 1,100 Climbing Atlanta Center
Sat 10:49:32 PM 32.7492 -84.6167 200° South 442 509 22,000 200 Climbing Atlanta Center
Sat 10:50:32 PM 32.6342 -84.6753 203° Southwest 450 518 22,000  Level Atlanta Center
Sat 10:51:32 PM 32.5192 -84.7311 202° Southwest 450 518 22,000  Level Atlanta Center
Sat 10:52:32 PM 32.4039 -84.7892 203° Southwest 455 524 22,000  Level Atlanta Center
Sat 10:54:24 PM 32.1883 -84.8933 202° Southwest 448 516 22,000  Level Jacksonville Center
Sat 10:55:24 PM 32.0725 -84.9494 202° Southwest 448 516 22,000  Level Jacksonville Center
Sat 10:56:24 PM 31.9567 -85.0081 203° Southwest 448 516 22,000  Level Jacksonville Center
Sat 10:57:24 PM 31.8306 -85.0736 204° Southwest 448 516 22,000  Level Jacksonville Center
Sat 10:58:24 PM 31.7147 -85.1297 202° Southwest 453 521 22,000  Level Jacksonville Center
Sat 10:59:24 PM 31.6072 -85.1783 201° Southwest 453 521 22,000 -350 Level Jacksonville Center
Sat 11:00:24 PM 31.4956 -85.2364 204° Southwest 453 521 21,300 -1,400 Descending Jacksonville Center
Sat 11:01:24 PM 31.3903 -85.2872 202° Southwest 438 504 19,200 -2,100 Descending Jacksonville Center
Sat 11:02:24 PM 31.2892 -85.3358 202° Southwest 413 475 17,100 -2,200 Descending Jacksonville Center
Sat 11:03:24 PM 31.1900 -85.3817 202° Southwest 394 453 14,800 -2,100 Descending Jacksonville Center
Sat 11:04:24 PM 31.0953 -85.4278 203° Southwest 384 442 12,900 -1,500 Descending Jacksonville Center
Sat 11:05:24 PM 31.0108 -85.4717 204° Southwest 361 415 11,800 -1,050 Descending Jacksonville Center
Sat 11:06:24 PM 30.9328 -85.5081 202° Southwest 330 380 10,800 -1,300 Descending Jacksonville Center
Sat 11:07:24 PM 30.8589 -85.5447 203° Southwest 305 351 9,200 -1,600 Descending Jacksonville Center
Sat 11:08:24 PM 30.7853 -85.5767 200° South 293 337 7,600 -1,750 Descending Jacksonville Center
Sat 11:09:24 PM 30.7114 -85.6156 204° Southwest 288 331 5,700 -1,750 Descending Jacksonville Center
Sat 11:10:24 PM 30.6419 -85.6450 200° South 282 325 4,100 -1,300 Descending Jacksonville Center
Sat 11:11:24 PM 30.5764 -85.6817 206° Southwest 275 316 3,100 -500 Descending Jacksonville Center
Sat 11:12:24 PM 30.5664 -85.7489 260° West 228 262 3,100 -150 Level Jacksonville Center
Sat 11:13:24 PM 30.5772 -85.8242 280° West 215 247 2,800 -500 Descending Jacksonville Center
Sat 11:14:24 PM 30.5714 -85.8914 264° West 215 247 2,100 -350 Descending Jacksonville Center
Sat 11:15:24 PM 30.5197 -85.8706 161° South 134 154 2,100  Level Jacksonville Center

Login

Don't have an account? Register now (free) for customized features, flight alerts, and more!